sensor_id;sensor_type;location;lat;lon;timestamp;P1;durP1;ratioP1;P2;durP2;ratioP2
19903;SDS011;10114;50.970;4.962;2023-09-19T00:00:19;9.65;;;2.15;;
19903;SDS011;10114;50.970;4.962;2023-09-19T00:02:58;10.23;;;2.00;;
19903;SDS011;10114;50.970;4.962;2023-09-19T00:05:27;13.07;;;2.20;;
19903;SDS011;10114;50.970;4.962;2023-09-19T00:07:54;14.40;;;1.83;;
19903;SDS011;10114;50.970;4.962;2023-09-19T00:10:38;11.35;;;2.03;;
19903;SDS011;10114;50.970;4.962;2023-09-19T00:13:06;11.40;;;2.22;;
19903;SDS011;10114;50.970;4.962;2023-09-19T00:15:40;16.30;;;2.42;;
19903;SDS011;10114;50.970;4.962;2023-09-19T00:18:06;7.72;;;1.70;;
19903;SDS011;10114;50.970;4.962;2023-09-19T00:20:35;11.48;;;1.80;;
19903;SDS011;10114;50.970;4.962;2023-09-19T00:23:01;9.50;;;1.52;;
19903;SDS011;10114;50.970;4.962;2023-09-19T00:25:34;17.02;;;2.25;;
19903;SDS011;10114;50.970;4.962;2023-09-19T00:28:02;9.60;;;1.88;;
19903;SDS011;10114;50.970;4.962;2023-09-19T00:30:28;10.48;;;1.80;;
19903;SDS011;10114;50.970;4.962;2023-09-19T00:32:54;13.77;;;2.08;;
19903;SDS011;10114;50.970;4.962;2023-09-19T00:35:20;15.70;;;2.55;;
19903;SDS011;10114;50.970;4.962;2023-09-19T00:37:50;10.77;;;2.00;;
19903;SDS011;10114;50.970;4.962;2023-09-19T00:40:16;11.48;;;1.60;;
19903;SDS011;10114;50.970;4.962;2023-09-19T00:42:42;24.75;;;3.47;;
19903;SDS011;10114;50.970;4.962;2023-09-19T00:45:09;12.57;;;1.60;;
19903;SDS011;10114;50.970;4.962;2023-09-19T00:47:42;10.57;;;1.73;;
19903;SDS011;10114;50.970;4.962;2023-09-19T00:50:09;11.68;;;1.83;;
19903;SDS011;10114;50.970;4.962;2023-09-19T00:52:38;9.55;;;1.40;;
19903;SDS011;10114;50.970;4.962;2023-09-19T00:55:06;12.77;;;3.08;;
19903;SDS011;10114;50.970;4.962;2023-09-19T00:57:33;8.00;;;1.65;;
19903;SDS011;10114;50.970;4.962;2023-09-19T01:00:00;9.05;;;1.83;;
19903;SDS011;10114;50.970;4.962;2023-09-19T01:02:30;7.07;;;1.67;;
19903;SDS011;10114;50.970;4.962;2023-09-19T01:04:56;13.93;;;1.65;;
19903;SDS011;10114;50.970;4.962;2023-09-19T01:07:23;15.68;;;2.17;;
19903;SDS011;10114;50.970;4.962;2023-09-19T01:09:49;11.75;;;2.03;;
19903;SDS011;10114;50.970;4.962;2023-09-19T01:12:17;10.38;;;2.00;;
19903;SDS011;10114;50.970;4.962;2023-09-19T01:14:54;10.07;;;1.83;;
19903;SDS011;10114;50.970;4.962;2023-09-19T01:17:42;10.30;;;1.90;;
19903;SDS011;10114;50.970;4.962;2023-09-19T01:20:33;14.48;;;1.83;;
19903;SDS011;10114;50.970;4.962;2023-09-19T01:23:10;11.13;;;1.70;;
19903;SDS011;10114;50.970;4.962;2023-09-19T01:30:43;11.00;;;2.00;;
19903;SDS011;10114;50.970;4.962;2023-09-19T01:33:09;13.15;;;1.60;;
19903;SDS011;10114;50.970;4.962;2023-09-19T01:35:38;17.95;;;1.95;;
19903;SDS011;10114;50.970;4.962;2023-09-19T01:38:07;12.00;;;1.60;;
19903;SDS011;10114;50.970;4.962;2023-09-19T01:40:43;9.13;;;1.80;;
19903;SDS011;10114;50.970;4.962;2023-09-19T01:43:12;12.30;;;1.70;;
19903;SDS011;10114;50.970;4.962;2023-09-19T01:48:15;19.40;;;2.05;;
19903;SDS011;10114;50.970;4.962;2023-09-19T01:50:49;9.93;;;1.73;;
19903;SDS011;10114;50.970;4.962;2023-09-19T01:53:23;8.52;;;1.65;;
19903;SDS011;10114;50.970;4.962;2023-09-19T01:55:50;7.03;;;1.63;;
19903;SDS011;10114;50.970;4.962;2023-09-19T01:58:27;8.63;;;1.85;;
19903;SDS011;10114;50.970;4.962;2023-09-19T02:00:55;10.43;;;1.85;;
19903;SDS011;10114;50.970;4.962;2023-09-19T02:03:22;9.02;;;1.65;;
19903;SDS011;10114;50.970;4.962;2023-09-19T02:05:51;15.30;;;2.63;;
19903;SDS011;10114;50.970;4.962;2023-09-19T02:08:19;11.32;;;1.70;;
19903;SDS011;10114;50.970;4.962;2023-09-19T02:10:45;14.95;;;2.25;;
19903;SDS011;10114;50.970;4.962;2023-09-19T02:13:15;11.60;;;1.80;;
19903;SDS011;10114;50.970;4.962;2023-09-19T02:15:42;10.65;;;1.83;;
19903;SDS011;10114;50.970;4.962;2023-09-19T02:18:09;10.98;;;1.80;;
19903;SDS011;10114;50.970;4.962;2023-09-19T02:20:36;13.70;;;1.90;;
19903;SDS011;10114;50.970;4.962;2023-09-19T02:23:03;16.88;;;1.73;;
19903;SDS011;10114;50.970;4.962;2023-09-19T02:25:29;10.45;;;1.73;;
19903;SDS011;10114;50.970;4.962;2023-09-19T02:27:56;9.35;;;1.75;;
19903;SDS011;10114;50.970;4.962;2023-09-19T02:30:24;12.27;;;2.40;;
19903;SDS011;10114;50.970;4.962;2023-09-19T02:32:53;9.93;;;1.50;;
19903;SDS011;10114;50.970;4.962;2023-09-19T02:35:19;10.60;;;1.90;;
19903;SDS011;10114;50.970;4.962;2023-09-19T02:37:46;13.20;;;2.25;;
19903;SDS011;10114;50.970;4.962;2023-09-19T02:40:12;17.30;;;1.80;;
19903;SDS011;10114;50.970;4.962;2023-09-19T02:42:47;14.68;;;2.42;;
19903;SDS011;10114;50.970;4.962;2023-09-19T02:45:17;17.20;;;2.33;;
19903;SDS011;10114;50.970;4.962;2023-09-19T02:47:44;14.35;;;1.70;;
19903;SDS011;10114;50.970;4.962;2023-09-19T02:50:10;11.15;;;1.80;;
19903;SDS011;10114;50.970;4.962;2023-09-19T02:52:37;10.68;;;2.22;;
19903;SDS011;10114;50.970;4.962;2023-09-19T02:55:03;12.48;;;2.58;;
19903;SDS011;10114;50.970;4.962;2023-09-19T02:57:31;13.35;;;1.98;;
19903;SDS011;10114;50.970;4.962;2023-09-19T02:59:58;15.40;;;1.90;;
19903;SDS011;10114;50.970;4.962;2023-09-19T03:02:25;15.38;;;2.10;;
19903;SDS011;10114;50.970;4.962;2023-09-19T03:04:53;13.38;;;1.92;;
19903;SDS011;10114;50.970;4.962;2023-09-19T03:07:19;15.07;;;2.20;;
19903;SDS011;10114;50.970;4.962;2023-09-19T03:09:45;11.35;;;1.70;;
19903;SDS011;10114;50.970;4.962;2023-09-19T03:12:11;11.57;;;1.80;;
19903;SDS011;10114;50.970;4.962;2023-09-19T03:14:40;11.90;;;1.67;;
19903;SDS011;10114;50.970;4.962;2023-09-19T03:17:06;9.13;;;2.33;;
19903;SDS011;10114;50.970;4.962;2023-09-19T03:19:34;8.05;;;1.90;;
19903;SDS011;10114;50.970;4.962;2023-09-19T03:22:00;13.40;;;1.90;;
19903;SDS011;10114;50.970;4.962;2023-09-19T03:24:27;10.25;;;1.92;;
19903;SDS011;10114;50.970;4.962;2023-09-19T03:26:54;11.05;;;1.67;;
19903;SDS011;10114;50.970;4.962;2023-09-19T03:29:20;14.98;;;2.17;;
19903;SDS011;10114;50.970;4.962;2023-09-19T03:31:47;10.70;;;2.15;;
19903;SDS011;10114;50.970;4.962;2023-09-19T03:34:13;13.18;;;2.03;;
19903;SDS011;10114;50.970;4.962;2023-09-19T03:36:39;13.00;;;2.08;;
19903;SDS011;10114;50.970;4.962;2023-09-19T03:39:06;11.77;;;2.20;;
19903;SDS011;10114;50.970;4.962;2023-09-19T03:41:32;11.15;;;1.98;;
19903;SDS011;10114;50.970;4.962;2023-09-19T03:44:01;21.50;;;2.45;;
19903;SDS011;10114;50.970;4.962;2023-09-19T03:46:27;12.65;;;2.03;;
19903;SDS011;10114;50.970;4.962;2023-09-19T03:48:55;14.38;;;2.08;;
19903;SDS011;10114;50.970;4.962;2023-09-19T03:51:21;14.77;;;2.17;;
19903;SDS011;10114;50.970;4.962;2023-09-19T03:53:47;12.02;;;2.17;;
19903;SDS011;10114;50.970;4.962;2023-09-19T03:56:15;10.95;;;1.80;;
19903;SDS011;10114;50.970;4.962;2023-09-19T03:58:41;17.50;;;2.60;;
19903;SDS011;10114;50.970;4.962;2023-09-19T04:01:07;13.02;;;2.35;;
19903;SDS011;10114;50.970;4.962;2023-09-19T04:03:33;14.27;;;2.47;;
19903;SDS011;10114;50.970;4.962;2023-09-19T04:06:10;14.63;;;2.05;;
19903;SDS011;10114;50.970;4.962;2023-09-19T04:08:36;8.65;;;1.92;;
19903;SDS011;10114;50.970;4.962;2023-09-19T04:11:03;10.27;;;2.05;;
19903;SDS011;10114;50.970;4.962;2023-09-19T04:13:29;14.45;;;1.92;;
19903;SDS011;10114;50.970;4.962;2023-09-19T04:15:55;13.35;;;2.05;;
19903;SDS011;10114;50.970;4.962;2023-09-19T04:18:21;11.30;;;1.95;;
19903;SDS011;10114;50.970;4.962;2023-09-19T04:20:49;19.80;;;2.70;;
19903;SDS011;10114;50.970;4.962;2023-09-19T04:23:15;14.48;;;1.85;;
19903;SDS011;10114;50.970;4.962;2023-09-19T04:25:42;11.90;;;1.92;;
19903;SDS011;10114;50.970;4.962;2023-09-19T04:28:08;12.30;;;2.00;;
19903;SDS011;10114;50.970;4.962;2023-09-19T04:30:36;12.85;;;2.10;;
19903;SDS011;10114;50.970;4.962;2023-09-19T04:33:02;12.77;;;2.33;;
19903;SDS011;10114;50.970;4.962;2023-09-19T04:35:28;11.88;;;2.00;;
19903;SDS011;10114;50.970;4.962;2023-09-19T04:37:56;8.82;;;2.08;;
19903;SDS011;10114;50.970;4.962;2023-09-19T04:40:22;13.90;;;2.78;;
19903;SDS011;10114;50.970;4.962;2023-09-19T04:42:54;13.70;;;1.80;;
19903;SDS011;10114;50.970;4.962;2023-09-19T04:45:23;11.05;;;2.10;;
19903;SDS011;10114;50.970;4.962;2023-09-19T04:47:49;8.15;;;1.40;;
19903;SDS011;10114;50.970;4.962;2023-09-19T04:50:15;18.23;;;2.53;;
19903;SDS011;10114;50.970;4.962;2023-09-19T04:52:42;11.45;;;2.53;;
19903;SDS011;10114;50.970;4.962;2023-09-19T04:55:10;18.20;;;3.05;;
19903;SDS011;10114;50.970;4.962;2023-09-19T04:57:38;15.43;;;2.75;;
19903;SDS011;10114;50.970;4.962;2023-09-19T05:00:05;14.35;;;2.40;;
19903;SDS011;10114;50.970;4.962;2023-09-19T05:02:37;11.35;;;1.90;;
19903;SDS011;10114;50.970;4.962;2023-09-19T05:05:03;12.95;;;1.95;;
19903;SDS011;10114;50.970;4.962;2023-09-19T05:07:30;12.13;;;2.15;;
19903;SDS011;10114;50.970;4.962;2023-09-19T05:09:57;13.90;;;2.10;;
19903;SDS011;10114;50.970;4.962;2023-09-19T05:12:23;14.48;;;2.10;;
19903;SDS011;10114;50.970;4.962;2023-09-19T05:14:49;13.55;;;2.30;;
19903;SDS011;10114;50.970;4.962;2023-09-19T05:17:15;12.50;;;1.70;;
19903;SDS011;10114;50.970;4.962;2023-09-19T05:19:42;10.43;;;1.70;;
19903;SDS011;10114;50.970;4.962;2023-09-19T05:22:08;10.82;;;2.33;;
19903;SDS011;10114;50.970;4.962;2023-09-19T05:24:34;13.10;;;2.17;;
19903;SDS011;10114;50.970;4.962;2023-09-19T05:27:00;13.43;;;1.75;;
19903;SDS011;10114;50.970;4.962;2023-09-19T05:29:26;11.50;;;2.80;;
19903;SDS011;10114;50.970;4.962;2023-09-19T05:31:53;16.42;;;3.35;;
19903;SDS011;10114;50.970;4.962;2023-09-19T05:34:19;13.00;;;1.65;;
19903;SDS011;10114;50.970;4.962;2023-09-19T05:36:45;10.10;;;1.77;;
19903;SDS011;10114;50.970;4.962;2023-09-19T05:39:13;14.25;;;2.42;;
19903;SDS011;10114;50.970;4.962;2023-09-19T05:41:39;9.82;;;1.80;;
19903;SDS011;10114;50.970;4.962;2023-09-19T05:44:06;17.42;;;1.88;;
19903;SDS011;10114;50.970;4.962;2023-09-19T05:46:32;7.25;;;1.92;;
19903;SDS011;10114;50.970;4.962;2023-09-19T05:48:58;15.43;;;3.10;;
19903;SDS011;10114;50.970;4.962;2023-09-19T05:51:24;12.55;;;2.85;;
19903;SDS011;10114;50.970;4.962;2023-09-19T05:53:53;13.35;;;2.90;;
19903;SDS011;10114;50.970;4.962;2023-09-19T05:56:20;12.82;;;1.98;;
19903;SDS011;10114;50.970;4.962;2023-09-19T05:58:46;14.70;;;2.05;;
19903;SDS011;10114;50.970;4.962;2023-09-19T06:01:12;11.98;;;2.38;;
19903;SDS011;10114;50.970;4.962;2023-09-19T06:03:38;8.98;;;1.60;;
19903;SDS011;10114;50.970;4.962;2023-09-19T06:06:04;10.65;;;1.92;;
19903;SDS011;10114;50.970;4.962;2023-09-19T06:08:32;13.43;;;2.05;;
19903;SDS011;10114;50.970;4.962;2023-09-19T06:10:58;6.90;;;1.65;;
19903;SDS011;10114;50.970;4.962;2023-09-19T06:13:24;16.20;;;2.17;;
19903;SDS011;10114;50.970;4.962;2023-09-19T06:15:51;9.45;;;1.77;;
19903;SDS011;10114;50.970;4.962;2023-09-19T06:18:17;15.80;;;2.17;;
19903;SDS011;10114;50.970;4.962;2023-09-19T06:20:47;13.13;;;1.90;;
19903;SDS011;10114;50.970;4.962;2023-09-19T06:23:13;8.60;;;1.63;;
19903;SDS011;10114;50.970;4.962;2023-09-19T06:25:39;13.55;;;2.45;;
19903;SDS011;10114;50.970;4.962;2023-09-19T06:28:06;9.40;;;1.88;;
19903;SDS011;10114;50.970;4.962;2023-09-19T06:30:33;12.50;;;2.10;;
19903;SDS011;10114;50.970;4.962;2023-09-19T06:33:00;14.13;;;1.95;;
19903;SDS011;10114;50.970;4.962;2023-09-19T06:35:26;10.90;;;1.90;;
19903;SDS011;10114;50.970;4.962;2023-09-19T06:37:52;11.82;;;2.10;;
19903;SDS011;10114;50.970;4.962;2023-09-19T06:40:18;11.15;;;1.60;;
19903;SDS011;10114;50.970;4.962;2023-09-19T06:42:45;13.05;;;1.95;;
19903;SDS011;10114;50.970;4.962;2023-09-19T06:45:13;8.25;;;1.83;;
19903;SDS011;10114;50.970;4.962;2023-09-19T06:47:43;14.73;;;2.38;;
19903;SDS011;10114;50.970;4.962;2023-09-19T06:50:10;10.35;;;2.00;;
19903;SDS011;10114;50.970;4.962;2023-09-19T06:52:42;9.25;;;1.58;;
19903;SDS011;10114;50.970;4.962;2023-09-19T06:55:08;6.85;;;1.70;;
19903;SDS011;10114;50.970;4.962;2023-09-19T06:57:36;10.65;;;1.58;;
19903;SDS011;10114;50.970;4.962;2023-09-19T07:00:03;14.45;;;2.08;;
19903;SDS011;10114;50.970;4.962;2023-09-19T07:02:34;6.80;;;1.63;;
19903;SDS011;10114;50.970;4.962;2023-09-19T07:05:00;12.40;;;2.00;;
19903;SDS011;10114;50.970;4.962;2023-09-19T07:07:26;10.77;;;1.52;;
19903;SDS011;10114;50.970;4.962;2023-09-19T07:09:53;14.43;;;1.90;;
19903;SDS011;10114;50.970;4.962;2023-09-19T07:12:19;9.82;;;2.65;;
19903;SDS011;10114;50.970;4.962;2023-09-19T07:14:45;13.93;;;2.28;;
19903;SDS011;10114;50.970;4.962;2023-09-19T07:17:11;8.25;;;2.00;;
19903;SDS011;10114;50.970;4.962;2023-09-19T07:19:37;9.18;;;1.88;;
19903;SDS011;10114;50.970;4.962;2023-09-19T07:22:03;12.40;;;1.83;;
19903;SDS011;10114;50.970;4.962;2023-09-19T07:24:29;22.02;;;2.53;;
19903;SDS011;10114;50.970;4.962;2023-09-19T07:26:56;6.78;;;1.50;;
19903;SDS011;10114;50.970;4.962;2023-09-19T07:29:22;13.48;;;3.42;;
19903;SDS011;10114;50.970;4.962;2023-09-19T07:31:48;13.52;;;1.75;;
19903;SDS011;10114;50.970;4.962;2023-09-19T07:34:15;13.25;;;1.55;;
19903;SDS011;10114;50.970;4.962;2023-09-19T07:36:41;10.90;;;1.73;;
19903;SDS011;10114;50.970;4.962;2023-09-19T07:39:07;12.35;;;1.85;;
19903;SDS011;10114;50.970;4.962;2023-09-19T07:41:33;8.50;;;1.98;;
19903;SDS011;10114;50.970;4.962;2023-09-19T07:43:59;10.15;;;1.52;;
19903;SDS011;10114;50.970;4.962;2023-09-19T07:46:26;8.75;;;1.38;;
19903;SDS011;10114;50.970;4.962;2023-09-19T07:48:52;15.85;;;2.15;;
19903;SDS011;10114;50.970;4.962;2023-09-19T07:51:18;7.50;;;1.75;;
19903;SDS011;10114;50.970;4.962;2023-09-19T07:53:44;10.75;;;2.17;;
19903;SDS011;10114;50.970;4.962;2023-09-19T07:56:10;10.07;;;1.52;;
19903;SDS011;10114;50.970;4.962;2023-09-19T07:58:38;10.88;;;1.77;;
19903;SDS011;10114;50.970;4.962;2023-09-19T08:01:06;9.32;;;1.30;;
19903;SDS011;10114;50.970;4.962;2023-09-19T08:03:33;9.10;;;2.03;;
19903;SDS011;10114;50.970;4.962;2023-09-19T08:05:59;8.95;;;1.90;;
19903;SDS011;10114;50.970;4.962;2023-09-19T08:08:26;10.57;;;1.58;;
19903;SDS011;10114;50.970;4.962;2023-09-19T08:10:55;5.30;;;1.35;;
19903;SDS011;10114;50.970;4.962;2023-09-19T08:13:24;13.85;;;1.70;;
19903;SDS011;10114;50.970;4.962;2023-09-19T08:15:50;10.93;;;2.00;;
19903;SDS011;10114;50.970;4.962;2023-09-19T08:18:18;11.35;;;1.90;;
19903;SDS011;10114;50.970;4.962;2023-09-19T08:20:53;12.43;;;1.73;;
19903;SDS011;10114;50.970;4.962;2023-09-19T08:23:19;12.32;;;2.60;;
19903;SDS011;10114;50.970;4.962;2023-09-19T08:25:46;8.85;;;1.88;;
19903;SDS011;10114;50.970;4.962;2023-09-19T08:28:12;13.20;;;2.22;;
19903;SDS011;10114;50.970;4.962;2023-09-19T08:30:43;11.95;;;1.88;;
19903;SDS011;10114;50.970;4.962;2023-09-19T08:33:09;9.85;;;2.30;;
19903;SDS011;10114;50.970;4.962;2023-09-19T08:35:35;13.38;;;1.63;;
19903;SDS011;10114;50.970;4.962;2023-09-19T08:38:04;7.32;;;1.65;;
19903;SDS011;10114;50.970;4.962;2023-09-19T08:40:31;14.10;;;2.55;;
19903;SDS011;10114;50.970;4.962;2023-09-19T08:42:58;12.25;;;1.95;;
19903;SDS011;10114;50.970;4.962;2023-09-19T08:45:25;9.20;;;1.77;;
19903;SDS011;10114;50.970;4.962;2023-09-19T08:51:21;12.63;;;2.10;;
19903;SDS011;10114;50.970;4.962;2023-09-19T08:53:34;11.40;;;1.70;;
19903;SDS011;10114;50.970;4.962;2023-09-19T08:56:03;9.27;;;1.58;;
19903;SDS011;10114;50.970;4.962;2023-09-19T08:58:31;11.45;;;1.67;;
19903;SDS011;10114;50.970;4.962;2023-09-19T09:01:00;8.73;;;1.67;;
19903;SDS011;10114;50.970;4.962;2023-09-19T09:03:26;11.15;;;1.60;;
19903;SDS011;10114;50.970;4.962;2023-09-19T09:05:53;9.13;;;1.95;;
19903;SDS011;10114;50.970;4.962;2023-09-19T09:08:20;12.65;;;1.40;;
19903;SDS011;10114;50.970;4.962;2023-09-19T09:10:46;9.48;;;1.77;;
19903;SDS011;10114;50.970;4.962;2023-09-19T09:13:13;14.93;;;2.15;;
19903;SDS011;10114;50.970;4.962;2023-09-19T09:15:40;10.20;;;1.85;;
19903;SDS011;10114;50.970;4.962;2023-09-19T09:18:06;14.35;;;2.20;;
19903;SDS011;10114;50.970;4.962;2023-09-19T09:20:33;11.98;;;2.10;;
19903;SDS011;10114;50.970;4.962;2023-09-19T09:22:59;8.55;;;1.70;;
19903;SDS011;10114;50.970;4.962;2023-09-19T09:28:19;14.35;;;1.95;;
19903;SDS011;10114;50.970;4.962;2023-09-19T09:30:45;16.85;;;2.00;;
19903;SDS011;10114;50.970;4.962;2023-09-19T09:33:12;13.75;;;2.28;;
19903;SDS011;10114;50.970;4.962;2023-09-19T09:35:47;9.98;;;2.13;;
19903;SDS011;10114;50.970;4.962;2023-09-19T09:38:20;13.02;;;1.60;;
19903;SDS011;10114;50.970;4.962;2023-09-19T09:40:51;8.32;;;1.58;;
19903;SDS011;10114;50.970;4.962;2023-09-19T09:43:37;10.40;;;1.85;;
19903;SDS011;10114;50.970;4.962;2023-09-19T09:46:16;10.05;;;2.10;;
19903;SDS011;10114;50.970;4.962;2023-09-19T09:51:39;7.47;;;1.33;;
19903;SDS011;10114;50.970;4.962;2023-09-19T09:54:11;8.70;;;1.38;;
19903;SDS011;10114;50.970;4.962;2023-09-19T10:02:11;9.32;;;1.77;;
19903;SDS011;10114;50.970;4.962;2023-09-19T10:04:38;11.32;;;1.90;;
19903;SDS011;10114;50.970;4.962;2023-09-19T10:07:29;11.35;;;1.70;;
19903;SDS011;10114;50.970;4.962;2023-09-19T10:10:01;9.00;;;1.50;;
19903;SDS011;10114;50.970;4.962;2023-09-19T10:12:45;10.13;;;2.15;;
19903;SDS011;10114;50.970;4.962;2023-09-19T10:15:16;9.40;;;1.88;;
19903;SDS011;10114;50.970;4.962;2023-09-19T10:17:45;12.45;;;1.55;;
19903;SDS011;10114;50.970;4.962;2023-09-19T10:20:15;8.60;;;1.10;;
19903;SDS011;10114;50.970;4.962;2023-09-19T10:23:09;10.43;;;1.30;;
19903;SDS011;10114;50.970;4.962;2023-09-19T10:25:42;7.30;;;1.40;;
19903;SDS011;10114;50.970;4.962;2023-09-19T10:28:09;10.18;;;1.65;;
19903;SDS011;10114;50.970;4.962;2023-09-19T10:30:43;6.85;;;1.48;;
19903;SDS011;10114;50.970;4.962;2023-09-19T10:33:13;7.82;;;1.27;;
19903;SDS011;10114;50.970;4.962;2023-09-19T10:35:42;7.63;;;1.38;;
19903;SDS011;10114;50.970;4.962;2023-09-19T10:38:12;12.13;;;2.20;;
19903;SDS011;10114;50.970;4.962;2023-09-19T10:40:39;7.68;;;1.55;;
19903;SDS011;10114;50.970;4.962;2023-09-19T10:43:18;6.60;;;1.20;;
19903;SDS011;10114;50.970;4.962;2023-09-19T10:45:44;10.18;;;1.42;;
19903;SDS011;10114;50.970;4.962;2023-09-19T10:48:14;10.80;;;1.30;;
19903;SDS011;10114;50.970;4.962;2023-09-19T10:50:51;4.25;;;1.20;;
19903;SDS011;10114;50.970;4.962;2023-09-19T10:53:20;8.48;;;1.40;;
19903;SDS011;10114;50.970;4.962;2023-09-19T10:55:54;11.38;;;1.25;;
19903;SDS011;10114;50.970;4.962;2023-09-19T10:58:29;5.07;;;1.17;;
19903;SDS011;10114;50.970;4.962;2023-09-19T11:00:58;9.73;;;1.65;;
19903;SDS011;10114;50.970;4.962;2023-09-19T11:03:27;6.85;;;1.55;;
19903;SDS011;10114;50.970;4.962;2023-09-19T11:06:01;8.93;;;1.17;;
19903;SDS011;10114;50.970;4.962;2023-09-19T11:15:04;6.07;;;1.58;;
19903;SDS011;10114;50.970;4.962;2023-09-19T11:22:26;8.48;;;1.25;;
19903;SDS011;10114;50.970;4.962;2023-09-19T11:30:44;5.25;;;1.40;;
19903;SDS011;10114;50.970;4.962;2023-09-19T11:33:20;7.50;;;1.13;;
19903;SDS011;10114;50.970;4.962;2023-09-19T11:46:51;7.15;;;0.98;;
19903;SDS011;10114;50.970;4.962;2023-09-19T11:49:17;6.93;;;1.10;;
19903;SDS011;10114;50.970;4.962;2023-09-19T11:51:50;6.00;;;1.00;;
19903;SDS011;10114;50.970;4.962;2023-09-19T11:54:16;6.18;;;0.80;;
19903;SDS011;10114;50.970;4.962;2023-09-19T11:56:44;4.13;;;0.80;;
19903;SDS011;10114;50.970;4.962;2023-09-19T11:59:11;2.97;;;0.60;;
19903;SDS011;10114;50.970;4.962;2023-09-19T12:01:41;7.20;;;0.82;;
19903;SDS011;10114;50.970;4.962;2023-09-19T12:04:11;7.45;;;0.93;;
19903;SDS011;10114;50.970;4.962;2023-09-19T12:06:37;5.25;;;0.73;;
19903;SDS011;10114;50.970;4.962;2023-09-19T12:09:12;4.63;;;0.90;;
19903;SDS011;10114;50.970;4.962;2023-09-19T12:11:42;5.30;;;0.95;;
19903;SDS011;10114;50.970;4.962;2023-09-19T12:14:11;9.77;;;2.40;;
19903;SDS011;10114;50.970;4.962;2023-09-19T12:16:53;2.70;;;0.50;;
19903;SDS011;10114;50.970;4.962;2023-09-19T12:19:20;7.57;;;0.90;;
19903;SDS011;10114;50.970;4.962;2023-09-19T12:22:00;8.20;;;1.70;;
19903;SDS011;10114;50.970;4.962;2023-09-19T12:24:29;4.35;;;0.63;;
19903;SDS011;10114;50.970;4.962;2023-09-19T12:27:05;5.60;;;1.20;;
19903;SDS011;10114;50.970;4.962;2023-09-19T12:32:09;3.67;;;0.70;;
19903;SDS011;10114;50.970;4.962;2023-09-19T12:34:36;4.97;;;0.77;;
19903;SDS011;10114;50.970;4.962;2023-09-19T12:37:10;3.55;;;0.60;;
19903;SDS011;10114;50.970;4.962;2023-09-19T12:39:44;4.80;;;1.17;;
19903;SDS011;10114;50.970;4.962;2023-09-19T12:42:18;5.55;;;1.40;;
19903;SDS011;10114;50.970;4.962;2023-09-19T12:44:45;5.32;;;1.10;;
19903;SDS011;10114;50.970;4.962;2023-09-19T12:47:12;6.68;;;0.90;;
19903;SDS011;10114;50.970;4.962;2023-09-19T12:52:37;2.95;;;0.57;;
19903;SDS011;10114;50.970;4.962;2023-09-19T12:55:03;2.60;;;0.55;;
19903;SDS011;10114;50.970;4.962;2023-09-19T12:57:32;3.88;;;0.60;;
19903;SDS011;10114;50.970;4.962;2023-09-19T13:00:00;6.53;;;1.17;;
19903;SDS011;10114;50.970;4.962;2023-09-19T13:02:26;2.20;;;0.50;;
19903;SDS011;10114;50.970;4.962;2023-09-19T13:04:53;5.55;;;0.90;;
19903;SDS011;10114;50.970;4.962;2023-09-19T13:07:40;3.80;;;0.60;;
19903;SDS011;10114;50.970;4.962;2023-09-19T13:10:08;4.45;;;0.80;;
19903;SDS011;10114;50.970;4.962;2023-09-19T13:12:35;6.93;;;0.70;;
19903;SDS011;10114;50.970;4.962;2023-09-19T13:15:11;3.10;;;0.60;;
19903;SDS011;10114;50.970;4.962;2023-09-19T13:17:48;4.43;;;0.88;;
19903;SDS011;10114;50.970;4.962;2023-09-19T13:20:21;4.40;;;0.80;;
19903;SDS011;10114;50.970;4.962;2023-09-19T13:22:52;5.35;;;0.52;;
19903;SDS011;10114;50.970;4.962;2023-09-19T13:25:25;2.60;;;0.65;;
19903;SDS011;10114;50.970;4.962;2023-09-19T13:27:53;5.22;;;0.70;;
19903;SDS011;10114;50.970;4.962;2023-09-19T13:30:24;2.67;;;0.75;;
19903;SDS011;10114;50.970;4.962;2023-09-19T13:32:51;5.13;;;0.75;;
19903;SDS011;10114;50.970;4.962;2023-09-19T13:35:17;6.10;;;1.05;;
19903;SDS011;10114;50.970;4.962;2023-09-19T13:37:45;4.45;;;0.70;;
19903;SDS011;10114;50.970;4.962;2023-09-19T13:40:16;4.13;;;0.60;;
19903;SDS011;10114;50.970;4.962;2023-09-19T13:42:42;2.67;;;0.60;;
19903;SDS011;10114;50.970;4.962;2023-09-19T13:45:08;8.57;;;1.15;;
19903;SDS011;10114;50.970;4.962;2023-09-19T13:47:37;3.20;;;0.60;;
19903;SDS011;10114;50.970;4.962;2023-09-19T13:50:04;5.93;;;1.27;;
19903;SDS011;10114;50.970;4.962;2023-09-19T13:52:30;3.33;;;0.68;;
19903;SDS011;10114;50.970;4.962;2023-09-19T13:54:57;5.20;;;1.17;;
19903;SDS011;10114;50.970;4.962;2023-09-19T13:57:23;4.50;;;0.70;;
19903;SDS011;10114;50.970;4.962;2023-09-19T13:59:49;3.20;;;0.63;;
19903;SDS011;10114;50.970;4.962;2023-09-19T14:02:16;6.47;;;0.88;;
19903;SDS011;10114;50.970;4.962;2023-09-19T14:04:43;3.63;;;0.95;;
19903;SDS011;10114;50.970;4.962;2023-09-19T14:07:10;6.95;;;0.85;;
19903;SDS011;10114;50.970;4.962;2023-09-19T14:09:37;4.47;;;0.70;;
19903;SDS011;10114;50.970;4.962;2023-09-19T14:12:03;7.88;;;1.08;;
19903;SDS011;10114;50.970;4.962;2023-09-19T14:14:29;5.65;;;0.75;;
19903;SDS011;10114;50.970;4.962;2023-09-19T14:16:55;7.65;;;1.17;;
19903;SDS011;10114;50.970;4.962;2023-09-19T14:19:21;5.65;;;0.82;;
19903;SDS011;10114;50.970;4.962;2023-09-19T14:21:47;5.90;;;0.95;;
19903;SDS011;10114;50.970;4.962;2023-09-19T14:24:18;5.45;;;1.15;;
19903;SDS011;10114;50.970;4.962;2023-09-19T14:26:44;4.78;;;0.80;;
19903;SDS011;10114;50.970;4.962;2023-09-19T14:29:10;4.90;;;1.02;;
19903;SDS011;10114;50.970;4.962;2023-09-19T14:31:39;4.38;;;1.10;;
19903;SDS011;10114;50.970;4.962;2023-09-19T14:34:06;6.97;;;0.98;;
19903;SDS011;10114;50.970;4.962;2023-09-19T14:36:32;7.20;;;1.25;;
19903;SDS011;10114;50.970;4.962;2023-09-19T14:38:58;4.13;;;1.20;;
19903;SDS011;10114;50.970;4.962;2023-09-19T14:41:24;2.60;;;0.80;;
19903;SDS011;10114;50.970;4.962;2023-09-19T14:43:51;8.52;;;0.90;;
19903;SDS011;10114;50.970;4.962;2023-09-19T14:46:17;3.28;;;0.70;;
19903;SDS011;10114;50.970;4.962;2023-09-19T14:48:44;3.63;;;0.98;;
19903;SDS011;10114;50.970;4.962;2023-09-19T14:51:13;6.60;;;1.17;;
19903;SDS011;10114;50.970;4.962;2023-09-19T14:53:39;7.07;;;0.98;;
19903;SDS011;10114;50.970;4.962;2023-09-19T14:56:09;6.32;;;0.95;;
19903;SDS011;10114;50.970;4.962;2023-09-19T14:58:36;5.00;;;1.05;;
19903;SDS011;10114;50.970;4.962;2023-09-19T15:01:10;6.22;;;1.25;;
19903;SDS011;10114;50.970;4.962;2023-09-19T15:03:36;7.05;;;1.33;;
19903;SDS011;10114;50.970;4.962;2023-09-19T15:06:05;6.15;;;1.10;;
19903;SDS011;10114;50.970;4.962;2023-09-19T15:08:31;6.68;;;1.10;;
19903;SDS011;10114;50.970;4.962;2023-09-19T15:10:59;6.88;;;1.10;;
19903;SDS011;10114;50.970;4.962;2023-09-19T15:13:29;3.38;;;0.70;;
19903;SDS011;10114;50.970;4.962;2023-09-19T15:15:58;8.35;;;1.10;;
19903;SDS011;10114;50.970;4.962;2023-09-19T15:18:24;5.68;;;1.20;;
19903;SDS011;10114;50.970;4.962;2023-09-19T15:20:51;5.07;;;1.27;;
19903;SDS011;10114;50.970;4.962;2023-09-19T15:23:17;4.28;;;1.40;;
19903;SDS011;10114;50.970;4.962;2023-09-19T15:25:47;6.70;;;1.20;;
19903;SDS011;10114;50.970;4.962;2023-09-19T15:28:14;5.88;;;1.52;;
19903;SDS011;10114;50.970;4.962;2023-09-19T15:30:40;8.48;;;1.70;;
19903;SDS011;10114;50.970;4.962;2023-09-19T15:33:06;7.65;;;1.63;;
19903;SDS011;10114;50.970;4.962;2023-09-19T15:35:32;6.45;;;1.23;;
19903;SDS011;10114;50.970;4.962;2023-09-19T15:37:58;6.85;;;1.67;;
19903;SDS011;10114;50.970;4.962;2023-09-19T15:40:26;6.10;;;1.70;;
19903;SDS011;10114;50.970;4.962;2023-09-19T15:42:56;6.40;;;1.92;;